createdAt,value
2023-03-06T00:00:39.024Z,8.13
2023-03-06T00:03:06.394Z,8.14
2023-03-06T00:05:33.254Z,8.07
2023-03-06T00:08:00.274Z,7.99
2023-03-06T00:10:29.511Z,8.02
2023-03-06T00:13:00.126Z,8.10
2023-03-06T00:15:28.060Z,7.99
2023-03-06T00:17:56.116Z,8.11
2023-03-06T00:20:23.969Z,8.22
2023-03-06T00:22:51.083Z,7.98
2023-03-06T00:25:21.641Z,7.66
2023-03-06T00:27:49.613Z,7.36
2023-03-06T00:30:19.785Z,7.17
2023-03-06T00:32:46.879Z,7.05
2023-03-06T00:35:14.859Z,7.05
2023-03-06T00:37:44.314Z,7.02
2023-03-06T00:40:16.848Z,7.06
2023-03-06T00:42:44.074Z,7.18
2023-03-06T00:45:11.801Z,7.19
2023-03-06T00:47:39.574Z,7.17
2023-03-06T00:50:07.279Z,7.30
2023-03-06T00:52:34.588Z,7.44
2023-03-06T00:55:01.936Z,7.16
2023-03-06T00:57:28.827Z,7.41
2023-03-06T00:59:57.452Z,7.22
2023-03-06T01:02:24.626Z,7.61
2023-03-06T01:04:54.671Z,7.53
2023-03-06T01:07:21.509Z,7.49
2023-03-06T01:09:48.354Z,8.02
2023-03-06T01:12:15.529Z,8.26
2023-03-06T01:14:42.401Z,8.25
2023-03-06T01:17:10.164Z,8.11
2023-03-06T01:19:37.392Z,7.96
2023-03-06T01:22:04.335Z,7.45
2023-03-06T01:24:31.708Z,7.13
2023-03-06T01:26:58.674Z,7.05
2023-03-06T01:29:26.512Z,6.89
2023-03-06T01:31:53.572Z,6.75
2023-03-06T01:34:20.681Z,6.59
2023-03-06T01:36:48.081Z,6.56
2023-03-06T01:39:15.562Z,6.61
2023-03-06T01:41:42.429Z,6.31
2023-03-06T01:44:13.822Z,6.30
2023-03-06T01:46:42.536Z,6.28
2023-03-06T01:49:19.028Z,6.32
2023-03-06T01:51:49.690Z,6.41
2023-03-06T01:54:24.140Z,6.33
2023-03-06T01:56:56.429Z,6.10
2023-03-06T01:59:24.560Z,5.96
2023-03-06T02:01:51.506Z,6.02
2023-03-06T02:04:19.531Z,5.70
2023-03-06T02:06:47.685Z,5.87
2023-03-06T02:09:15.039Z,6.19
2023-03-06T02:11:44.283Z,6.00
2023-03-06T02:14:17.493Z,6.14
2023-03-06T02:16:44.995Z,6.19
2023-03-06T02:19:41.326Z,6.46
2023-03-06T02:22:08.396Z,7.05
2023-03-06T02:24:47.840Z,7.00
2023-03-06T02:27:15.961Z,6.97
2023-03-06T02:29:43.635Z,7.24
2023-03-06T02:32:10.699Z,7.02
2023-03-06T02:34:37.443Z,6.87
2023-03-06T02:37:10.173Z,6.65
2023-03-06T02:39:44.317Z,6.54
2023-03-06T02:42:21.382Z,6.55
2023-03-06T02:44:49.669Z,6.90
2023-03-06T02:47:16.531Z,6.71
2023-03-06T02:49:43.366Z,6.53
2023-03-06T02:52:10.218Z,6.42
2023-03-06T02:54:39.434Z,6.30
2023-03-06T02:57:07.182Z,6.27
2023-03-06T02:59:34.603Z,6.27
2023-03-06T03:02:03.933Z,6.20
2023-03-06T03:04:30.938Z,6.13
2023-03-06T03:06:58.289Z,6.06
2023-03-06T03:09:25.605Z,6.08
2023-03-06T03:11:52.514Z,6.06
2023-03-06T03:14:19.549Z,5.96
2023-03-06T03:16:47.729Z,6.00
2023-03-06T03:19:14.560Z,5.99
2023-03-06T03:21:42.851Z,5.94
2023-03-06T03:24:09.773Z,5.92
2023-03-06T03:26:36.846Z,5.87
2023-03-06T03:29:10.797Z,5.77
2023-03-06T03:31:37.710Z,5.79
2023-03-06T03:34:05.113Z,5.75
2023-03-06T03:36:35.580Z,5.68
2023-03-06T03:39:04.187Z,5.61
2023-03-06T03:41:31.221Z,5.65
2023-03-06T03:43:58.161Z,5.64
2023-03-06T03:46:26.281Z,5.60
2023-03-06T03:48:55.748Z,5.58
2023-03-06T03:51:22.678Z,5.66
2023-03-06T03:53:53.391Z,5.64
2023-03-06T03:56:24.725Z,5.62
2023-03-06T03:59:02.863Z,5.56
2023-03-06T04:01:37.726Z,5.63
2023-03-06T04:04:06.319Z,5.63
2023-03-06T04:06:33.219Z,5.69
2023-03-06T04:09:00.110Z,5.69
2023-03-06T04:11:27.085Z,5.52
2023-03-06T04:13:54.071Z,5.44
2023-03-06T04:16:21.150Z,5.42
2023-03-06T04:18:50.503Z,5.37
2023-03-06T04:21:17.486Z,5.22
2023-03-06T04:23:44.898Z,5.27
2023-03-06T04:26:12.462Z,5.36
2023-03-06T04:28:39.371Z,5.23
2023-03-06T04:31:06.478Z,5.34
2023-03-06T04:33:33.432Z,5.20
2023-03-06T04:36:00.549Z,5.19
2023-03-06T04:38:30.965Z,5.18
2023-03-06T04:40:57.918Z,5.14
2023-03-06T04:43:24.971Z,5.23
2023-03-06T04:45:51.979Z,5.20
2023-03-06T04:48:19.046Z,5.14
2023-03-06T04:50:46.205Z,5.18
2023-03-06T04:53:14.623Z,5.07
2023-03-06T04:55:41.558Z,5.14
2023-03-06T04:58:08.358Z,5.18
2023-03-06T05:00:35.194Z,5.14
2023-03-06T05:03:02.363Z,5.11
2023-03-06T05:05:29.772Z,5.12
2023-03-06T05:07:57.040Z,4.95
2023-03-06T05:10:24.358Z,4.93
2023-03-06T05:12:51.462Z,4.82
2023-03-06T05:15:18.920Z,4.51
2023-03-06T05:17:47.532Z,4.36
2023-03-06T05:20:15.068Z,4.58
2023-03-06T05:22:42.162Z,4.16
2023-03-06T05:25:10.835Z,4.19
2023-03-06T05:27:38.570Z,4.27
2023-03-06T05:30:06.936Z,4.21
2023-03-06T05:32:35.532Z,4.27
2023-03-06T05:35:03.866Z,4.43
2023-03-06T05:37:30.970Z,4.40
2023-03-06T05:39:58.156Z,4.62
2023-03-06T05:42:26.413Z,5.13
2023-03-06T05:44:55.037Z,5.52
2023-03-06T05:47:21.857Z,5.37
2023-03-06T05:49:48.777Z,5.11
2023-03-06T05:52:17.557Z,5.36
2023-03-06T05:54:44.841Z,5.43
2023-03-06T05:57:11.777Z,5.44
2023-03-06T05:59:38.614Z,5.36
2023-03-06T06:02:05.781Z,5.38
2023-03-06T06:04:32.741Z,5.50
2023-03-06T06:07:01.515Z,5.57
2023-03-06T06:09:29.107Z,5.76
2023-03-06T06:12:02.012Z,6.10
2023-03-06T06:14:30.090Z,6.22
2023-03-06T06:16:56.943Z,6.51
2023-03-06T06:19:24.004Z,6.83
2023-03-06T06:21:54.028Z,6.98
2023-03-06T06:24:23.598Z,7.22
2023-03-06T06:26:52.464Z,7.52
2023-03-06T06:29:19.582Z,7.75
2023-03-06T06:31:46.666Z,7.82
2023-03-06T06:34:14.128Z,8.17
2023-03-06T06:36:41.980Z,8.15
2023-03-06T06:39:09.674Z,8.44
2023-03-06T06:41:53.684Z,8.46
2023-03-06T06:44:22.106Z,8.79
2023-03-06T06:47:21.317Z,8.64
2023-03-06T06:49:37.611Z,8.68
2023-03-06T06:52:06.127Z,8.80
2023-03-06T06:54:34.521Z,9.09
2023-03-06T06:57:01.395Z,9.38
2023-03-06T06:59:28.211Z,9.42
2023-03-06T07:01:55.003Z,9.42
2023-03-06T07:04:21.910Z,9.30
2023-03-06T07:06:48.832Z,9.72
2023-03-06T07:09:16.359Z,9.75
2023-03-06T07:11:43.197Z,9.89
2023-03-06T07:14:10.035Z,9.69
2023-03-06T07:16:36.945Z,9.63
2023-03-06T07:19:03.855Z,9.87
2023-03-06T07:21:30.714Z,10.00
2023-03-06T07:23:57.752Z,10.02
2023-03-06T07:26:28.514Z,10.35
2023-03-06T07:28:55.513Z,10.08
2023-03-06T07:31:24.958Z,10.49
2023-03-06T07:33:53.619Z,10.66
2023-03-06T07:36:21.916Z,10.71
2023-03-06T07:38:48.813Z,10.68
2023-03-06T07:41:16.584Z,10.61
2023-03-06T07:43:44.988Z,10.42
2023-03-06T07:46:14.346Z,10.76
2023-03-06T07:48:42.225Z,11.18
2023-03-06T07:51:14.967Z,11.34
2023-03-06T07:53:41.798Z,11.42
2023-03-06T07:56:09.444Z,11.67
2023-03-06T07:58:38.197Z,11.71
2023-03-06T08:01:06.682Z,11.53
2023-03-06T08:03:34.449Z,11.67
2023-03-06T08:06:20.640Z,11.59
2023-03-06T08:08:49.042Z,11.58
2023-03-06T08:11:18.886Z,11.48
2023-03-06T08:13:46.887Z,11.93
2023-03-06T08:16:13.784Z,11.63
2023-03-06T08:18:40.836Z,11.78
2023-03-06T08:21:10.658Z,11.92
2023-03-06T08:23:38.528Z,12.08
2023-03-06T08:26:08.680Z,12.27
2023-03-06T08:28:35.630Z,12.65
2023-03-06T08:31:19.041Z,12.99
2023-03-06T08:33:45.902Z,12.32
2023-03-06T08:36:12.750Z,12.89
2023-03-06T08:38:39.608Z,12.87
2023-03-06T08:41:06.651Z,13.12
2023-03-06T08:43:35.269Z,13.47
2023-03-06T08:46:02.801Z,13.54
2023-03-06T08:48:29.809Z,13.54
2023-03-06T08:50:56.720Z,13.43
2023-03-06T08:53:40.390Z,13.69
2023-03-06T08:56:19.472Z,13.73
2023-03-06T08:58:47.532Z,13.67
2023-03-06T09:01:23.185Z,13.87
2023-03-06T09:03:50.037Z,13.83
2023-03-06T09:06:17.112Z,13.44
2023-03-06T09:08:44.689Z,13.66
2023-03-06T09:11:14.018Z,13.83
2023-03-06T09:13:41.999Z,13.64
2023-03-06T09:16:10.126Z,13.74
2023-03-06T09:18:37.370Z,13.75
2023-03-06T09:21:05.139Z,13.85
2023-03-06T09:23:32.412Z,14.06
2023-03-06T09:26:00.749Z,14.39
2023-03-06T09:28:28.090Z,14.40
2023-03-06T09:30:55.081Z,14.51
2023-03-06T09:33:22.087Z,14.38
2023-03-06T09:35:56.792Z,14.38
2023-03-06T09:38:26.049Z,14.54
2023-03-06T09:40:58.726Z,14.46
2023-03-06T09:43:36.543Z,14.46
2023-03-06T09:46:32.540Z,14.61
2023-03-06T09:49:23.628Z,14.86
2023-03-06T09:52:01.834Z,14.93
2023-03-06T09:54:46.229Z,14.59
2023-03-06T09:57:47.661Z,14.63
2023-03-06T10:00:19.618Z,14.18
2023-03-06T10:02:53.726Z,14.45
2023-03-06T10:05:26.189Z,14.78
2023-03-06T10:08:06.050Z,14.91
2023-03-06T10:10:40.094Z,14.91
2023-03-06T10:13:20.873Z,15.03
2023-03-06T10:15:50.108Z,15.15
2023-03-06T10:18:17.191Z,14.86
2023-03-06T10:21:18.804Z,15.14
2023-03-06T10:23:55.784Z,15.00
2023-03-06T10:26:32.696Z,15.01
2023-03-06T10:29:14.924Z,15.33
2023-03-06T10:31:49.626Z,15.21
2023-03-06T10:34:32.663Z,15.17
2023-03-06T10:37:09.352Z,15.34
2023-03-06T10:39:36.344Z,15.36
2023-03-06T10:42:03.311Z,15.22
2023-03-06T10:44:30.578Z,15.35
2023-03-06T10:46:57.637Z,15.34
2023-03-06T10:49:36.147Z,15.41
2023-03-06T10:52:26.275Z,15.25
2023-03-06T10:55:12.738Z,15.53
2023-03-06T10:57:39.815Z,15.48
2023-03-06T11:00:25.112Z,15.56
2023-03-06T11:03:18.192Z,15.36
2023-03-06T11:06:13.610Z,15.59
2023-03-06T11:08:43.747Z,15.87
2023-03-06T11:11:35.245Z,15.50
2023-03-06T11:14:18.138Z,15.56
2023-03-06T11:16:53.198Z,15.74
2023-03-06T11:19:25.798Z,15.90
2023-03-06T11:22:02.150Z,15.85
2023-03-06T11:24:40.797Z,15.87
2023-03-06T11:27:23.877Z,15.24
2023-03-06T11:29:55.120Z,15.41
2023-03-06T11:32:27.918Z,15.38
2023-03-06T11:35:02.725Z,15.68
2023-03-06T11:37:32.493Z,15.51
2023-03-06T11:40:11.917Z,15.61
2023-03-06T11:43:11.848Z,16.12
2023-03-06T11:45:45.938Z,16.40
2023-03-06T11:48:15.944Z,16.24
2023-03-06T11:51:25.958Z,16.33
2023-03-06T11:53:54.391Z,16.43
2023-03-06T11:56:27.203Z,16.01
2023-03-06T11:59:31.683Z,16.29
2023-03-06T12:02:31.920Z,16.22
2023-03-06T12:05:04.622Z,16.24
2023-03-06T12:07:41.091Z,16.42
2023-03-06T12:10:16.868Z,15.84
2023-03-06T12:13:01.892Z,16.08
2023-03-06T12:15:37.654Z,16.24
2023-03-06T12:18:34.992Z,16.14
2023-03-06T12:21:20.840Z,16.22
2023-03-06T12:24:29.469Z,16.21
2023-03-06T12:27:02.283Z,16.26
2023-03-06T12:30:09.564Z,16.01
2023-03-06T12:32:39.419Z,15.92
2023-03-06T12:35:39.291Z,15.92
2023-03-06T12:38:30.981Z,16.24
2023-03-06T12:41:15.956Z,16.41
2023-03-06T12:44:10.263Z,16.34
2023-03-06T12:46:45.037Z,16.55
2023-03-06T12:49:31.505Z,16.76
2023-03-06T12:52:01.334Z,16.93
2023-03-06T12:54:31.227Z,16.77
2023-03-06T12:57:00.781Z,16.93
2023-03-06T12:59:49.618Z,17.08
2023-03-06T13:02:36.550Z,17.11
2023-03-06T13:05:38.245Z,17.27
2023-03-06T13:08:31.558Z,16.98
2023-03-06T13:11:13.343Z,16.95
2023-03-06T13:13:45.318Z,17.07
2023-03-06T13:16:12.596Z,17.25
2023-03-06T13:18:46.911Z,17.21
2023-03-06T13:21:42.719Z,17.08
2023-03-06T13:24:21.474Z,16.85
2023-03-06T13:26:50.152Z,16.80
2023-03-06T13:29:38.817Z,16.71
2023-03-06T13:32:18.040Z,17.12
2023-03-06T13:34:50.329Z,16.73
2023-03-06T13:37:17.239Z,17.12
2023-03-06T13:39:56.871Z,17.40
2023-03-06T13:42:31.904Z,17.37
2023-03-06T13:45:09.054Z,17.27
2023-03-06T13:48:02.492Z,17.06
2023-03-06T13:50:49.671Z,16.62
2023-03-06T13:53:27.015Z,16.54
2023-03-06T13:56:06.557Z,17.08
2023-03-06T13:59:07.101Z,17.17
2023-03-06T14:01:48.992Z,17.13
2023-03-06T14:04:19.021Z,17.22
2023-03-06T14:06:53.132Z,17.33
2023-03-06T14:09:30.657Z,17.38
2023-03-06T14:12:02.271Z,17.11
2023-03-06T14:14:35.558Z,17.31
2023-03-06T14:17:05.362Z,17.22
2023-03-06T14:19:41.946Z,17.18
2023-03-06T14:22:17.304Z,16.93
2023-03-06T14:24:54.176Z,17.08
2023-03-06T14:27:21.433Z,17.01
2023-03-06T14:29:48.851Z,16.98
2023-03-06T14:32:22.973Z,16.64
2023-03-06T14:34:49.999Z,16.42
2023-03-06T14:37:21.994Z,16.29
2023-03-06T14:39:49.420Z,16.30
2023-03-06T14:42:20.361Z,16.34
2023-03-06T14:44:48.830Z,16.37
2023-03-06T14:47:27.569Z,16.23
2023-03-06T14:50:30.128Z,16.11
2023-03-06T14:52:57.919Z,15.98
2023-03-06T14:55:28.232Z,16.01
2023-03-06T14:58:16.310Z,16.05
2023-03-06T15:00:50.130Z,16.00
2023-03-06T15:03:22.190Z,15.93
2023-03-06T15:05:49.460Z,15.80
2023-03-06T15:08:22.351Z,15.71
2023-03-06T15:10:58.389Z,15.74
2023-03-06T15:13:27.655Z,15.80
2023-03-06T15:16:14.710Z,15.66
2023-03-06T15:18:58.544Z,15.32
2023-03-06T15:21:27.318Z,15.26
2023-03-06T15:23:57.046Z,15.09
2023-03-06T15:26:31.364Z,15.09
2023-03-06T15:29:24.919Z,15.00
2023-03-06T15:31:52.033Z,14.93
2023-03-06T15:34:25.052Z,14.68
2023-03-06T15:36:58.593Z,14.69
2023-03-06T15:39:30.324Z,14.55
2023-03-06T15:42:07.160Z,14.32
2023-03-06T15:44:34.190Z,14.36
2023-03-06T15:47:08.751Z,14.34
2023-03-06T15:49:38.550Z,14.26
2023-03-06T15:52:07.304Z,14.07
2023-03-06T15:54:34.885Z,14.02
2023-03-06T15:57:08.239Z,13.90
2023-03-06T15:59:43.020Z,13.80
2023-03-06T16:02:18.250Z,13.79
2023-03-06T16:04:46.154Z,13.74
2023-03-06T16:07:13.497Z,13.60
2023-03-06T16:09:41.609Z,13.59
2023-03-06T16:12:20.493Z,13.46
2023-03-06T16:14:48.699Z,13.37
2023-03-06T16:17:16.233Z,13.33
2023-03-06T16:19:43.635Z,13.26
2023-03-06T16:22:10.740Z,13.16
2023-03-06T16:24:37.715Z,13.13
2023-03-06T16:27:05.346Z,13.06
2023-03-06T16:29:32.542Z,13.05
2023-03-06T16:32:01.988Z,13.10
2023-03-06T16:34:29.050Z,13.07
2023-03-06T16:36:56.347Z,12.96
2023-03-06T16:39:24.082Z,12.87
2023-03-06T16:41:51.887Z,12.88
2023-03-06T16:44:19.374Z,12.93
2023-03-06T16:46:48.898Z,12.80
2023-03-06T16:49:22.013Z,12.71
2023-03-06T16:51:49.128Z,12.72
2023-03-06T16:54:16.793Z,12.67
2023-03-06T16:56:44.379Z,12.65
2023-03-06T16:59:12.180Z,12.65
2023-03-06T17:01:42.696Z,12.62
2023-03-06T17:04:10.334Z,12.40
2023-03-06T17:06:38.050Z,12.36
2023-03-06T17:09:04.985Z,12.17
2023-03-06T17:11:31.882Z,11.78
2023-03-06T17:13:58.688Z,11.28
2023-03-06T17:16:25.696Z,10.99
2023-03-06T17:18:52.544Z,10.83
2023-03-06T17:21:19.659Z,10.89
2023-03-06T17:23:46.489Z,10.99
2023-03-06T17:26:18.972Z,11.01
2023-03-06T17:28:46.804Z,11.06
2023-03-06T17:31:26.737Z,11.07
2023-03-06T17:33:59.129Z,11.02
2023-03-06T17:36:27.806Z,11.08
2023-03-06T17:38:56.598Z,11.02
2023-03-06T17:41:24.744Z,10.84
2023-03-06T17:43:52.863Z,10.84
2023-03-06T17:46:19.917Z,10.84
2023-03-06T17:48:47.170Z,10.80
2023-03-06T17:51:14.300Z,10.91
2023-03-06T17:53:41.370Z,10.92
2023-03-06T17:56:11.171Z,10.96
2023-03-06T17:58:38.192Z,10.96
2023-03-06T18:01:13.110Z,10.83
2023-03-06T18:03:43.413Z,10.83
2023-03-06T18:06:10.502Z,10.75
2023-03-06T18:08:38.218Z,10.63
2023-03-06T18:11:07.746Z,10.43
2023-03-06T18:13:37.236Z,10.38
2023-03-06T18:16:05.284Z,10.60
2023-03-06T18:18:32.324Z,10.64
2023-03-06T18:21:05.084Z,10.70
2023-03-06T18:23:32.285Z,10.53
2023-03-06T18:26:11.816Z,10.57
2023-03-06T18:28:42.690Z,10.59
2023-03-06T18:31:20.421Z,10.59
2023-03-06T18:33:51.506Z,10.51
2023-03-06T18:36:18.816Z,10.66
2023-03-06T18:38:46.170Z,10.58
2023-03-06T18:41:14.188Z,10.42
2023-03-06T18:43:41.126Z,10.55
2023-03-06T18:46:08.128Z,10.63
2023-03-06T18:48:35.883Z,10.64
2023-03-06T18:51:08.247Z,10.75
2023-03-06T18:53:35.919Z,10.70
2023-03-06T18:56:03.890Z,10.58
2023-03-06T18:58:30.757Z,10.52
2023-03-06T19:00:59.317Z,10.65
2023-03-06T19:03:26.430Z,10.70
2023-03-06T19:05:53.440Z,10.76
2023-03-06T19:08:20.267Z,10.78
2023-03-06T19:10:47.389Z,10.60
2023-03-06T19:13:14.866Z,10.42
2023-03-06T19:15:47.274Z,10.46
2023-03-06T19:18:17.998Z,10.48
2023-03-06T19:20:45.371Z,10.36
2023-03-06T19:23:12.243Z,10.27
2023-03-06T19:25:39.042Z,9.95
2023-03-06T19:28:05.910Z,9.97
2023-03-06T19:30:33.040Z,10.10
2023-03-06T19:32:59.920Z,10.14
2023-03-06T19:35:27.352Z,10.18
2023-03-06T19:37:54.120Z,10.20
2023-03-06T19:40:21.068Z,10.21
2023-03-06T19:42:48.061Z,10.18
2023-03-06T19:45:14.835Z,10.16
2023-03-06T19:47:41.711Z,10.14
2023-03-06T19:50:09.468Z,10.22
2023-03-06T19:52:38.446Z,9.96
2023-03-06T19:55:06.232Z,10.12
2023-03-06T19:57:33.092Z,9.89
2023-03-06T19:59:59.961Z,9.74
2023-03-06T20:02:27.389Z,9.72
2023-03-06T20:04:54.965Z,9.51
2023-03-06T20:07:22.057Z,9.33
2023-03-06T20:09:49.086Z,9.40
2023-03-06T20:12:16.445Z,9.33
2023-03-06T20:14:43.578Z,9.28
2023-03-06T20:17:10.624Z,9.30
2023-03-06T20:19:37.632Z,9.22
2023-03-06T20:22:04.872Z,9.14
2023-03-06T20:24:31.727Z,9.00
2023-03-06T20:26:59.523Z,9.05
2023-03-06T20:29:28.205Z,9.06
2023-03-06T20:31:57.363Z,9.15
2023-03-06T20:34:25.356Z,9.08
2023-03-06T20:36:52.566Z,9.12
2023-03-06T20:39:21.906Z,9.14
2023-03-06T20:41:49.245Z,9.09
2023-03-06T20:44:18.237Z,9.04
2023-03-06T20:46:45.746Z,9.03
2023-03-06T20:49:13.446Z,9.04
2023-03-06T20:51:41.531Z,9.05
2023-03-06T20:54:11.320Z,9.02
2023-03-06T20:56:39.730Z,9.08
2023-03-06T20:59:08.062Z,8.36
2023-03-06T21:01:38.543Z,8.64
2023-03-06T21:04:05.433Z,8.79
2023-03-06T21:06:33.198Z,8.83
2023-03-06T21:09:01.550Z,8.83
2023-03-06T21:11:28.768Z,8.86
2023-03-06T21:13:56.524Z,8.72
2023-03-06T21:16:25.919Z,8.51
2023-03-06T21:18:55.485Z,8.64
2023-03-06T21:21:25.931Z,8.37
2023-03-06T21:23:53.123Z,8.13
2023-03-06T21:26:25.183Z,8.05
2023-03-06T21:28:52.072Z,8.13
2023-03-06T21:31:20.856Z,8.04
2023-03-06T21:33:49.009Z,7.98
2023-03-06T21:36:17.115Z,8.00
2023-03-06T21:38:43.982Z,7.98
2023-03-06T21:41:16.490Z,7.81
2023-03-06T21:43:43.698Z,7.84
2023-03-06T21:46:11.888Z,7.74
2023-03-06T21:48:39.034Z,7.65
2023-03-06T21:51:11.654Z,7.75
2023-03-06T21:53:41.128Z,7.53
2023-03-06T21:56:08.817Z,7.50
2023-03-06T21:58:35.730Z,7.52
2023-03-06T22:01:02.824Z,7.47
2023-03-06T22:03:29.846Z,7.49
2023-03-06T22:05:56.937Z,7.42
2023-03-06T22:08:25.200Z,7.45
2023-03-06T22:10:52.754Z,7.49
2023-03-06T22:13:19.785Z,7.49
2023-03-06T22:15:53.390Z,7.50
2023-03-06T22:18:20.251Z,7.56
2023-03-06T22:20:47.438Z,7.57
2023-03-06T22:23:14.259Z,7.57
2023-03-06T22:25:41.178Z,7.44
2023-03-06T22:28:08.063Z,7.42
2023-03-06T22:30:35.070Z,7.36
2023-03-06T22:33:01.888Z,7.31
2023-03-06T22:35:28.800Z,7.20
2023-03-06T22:37:55.690Z,7.20
2023-03-06T22:40:22.605Z,7.30
2023-03-06T22:42:49.381Z,7.31
2023-03-06T22:45:16.279Z,7.20
2023-03-06T22:47:43.301Z,7.06
2023-03-06T22:50:11.069Z,6.75
2023-03-06T22:52:37.943Z,6.90
2023-03-06T22:55:05.335Z,7.04
2023-03-06T22:57:32.326Z,7.06
2023-03-06T22:59:59.256Z,6.87
2023-03-06T23:02:26.172Z,6.95
2023-03-06T23:04:53.405Z,6.94
2023-03-06T23:07:21.083Z,6.77
2023-03-06T23:09:48.843Z,6.89
2023-03-06T23:12:34.292Z,6.98
2023-03-06T23:15:19.897Z,7.11
2023-03-06T23:18:05.320Z,7.10
2023-03-06T23:20:50.650Z,7.02
2023-03-06T23:23:40.358Z,7.00
2023-03-06T23:26:09.069Z,6.93
2023-03-06T23:28:35.980Z,6.68
2023-03-06T23:31:10.760Z,6.70
2023-03-06T23:33:38.878Z,6.76
2023-03-06T23:36:07.800Z,6.78
2023-03-06T23:38:35.150Z,6.51
2023-03-06T23:41:06.595Z,6.59
2023-03-06T23:43:34.280Z,6.63
2023-03-06T23:46:01.600Z,6.54
2023-03-06T23:48:28.768Z,6.51
2023-03-06T23:50:55.903Z,6.48
2023-03-06T23:53:23.243Z,6.45
2023-03-06T23:55:51.250Z,6.50
2023-03-06T23:58:19.429Z,6.33
